createdAt,value
2023-04-02T00:00:21.338Z,95.30
2023-04-02T00:03:08.846Z,95.30
2023-04-02T00:05:55.519Z,95.30
2023-04-02T00:08:41.103Z,95.30
2023-04-02T00:11:10.601Z,95.30
2023-04-02T00:13:42.487Z,95.30
2023-04-02T00:16:15.812Z,95.40
2023-04-02T00:18:48.609Z,95.30
2023-04-02T00:21:23.874Z,95.30
2023-04-02T00:23:56.701Z,95.30
2023-04-02T00:26:31.806Z,95.20
2023-04-02T00:29:01.165Z,95.20
2023-04-02T00:31:29.572Z,95.10
2023-04-02T00:33:59.641Z,95.20
2023-04-02T00:36:33.946Z,95.20
2023-04-02T00:39:06.013Z,95.10
2023-04-02T00:41:36.153Z,95.10
2023-04-02T00:44:05.946Z,95.10
2023-04-02T00:46:46.955Z,95.10
2023-04-02T00:49:24.001Z,95.00
2023-04-02T00:51:58.031Z,95.00
2023-04-02T00:54:32.738Z,95.00
2023-04-02T00:57:02.536Z,94.90
2023-04-02T00:59:35.638Z,94.80
2023-04-02T01:02:29.170Z,94.70
2023-04-02T01:05:00.384Z,94.80
2023-04-02T01:07:51.701Z,94.80
2023-04-02T01:10:45.487Z,94.90
2023-04-02T01:13:25.485Z,94.90
2023-04-02T01:16:02.632Z,94.90
2023-04-02T01:18:46.677Z,95.00
2023-04-02T01:21:42.105Z,95.00
2023-04-02T01:24:13.492Z,95.10
2023-04-02T01:26:53.502Z,95.10
2023-04-02T01:29:25.800Z,95.10
2023-04-02T01:31:57.105Z,95.10
2023-04-02T01:34:28.344Z,95.20
2023-04-02T01:37:32.252Z,95.30
2023-04-02T01:40:28.404Z,95.20
2023-04-02T01:43:06.500Z,95.20
2023-04-02T01:45:36.888Z,95.20
2023-04-02T01:48:10.186Z,95.10
2023-04-02T01:50:40.347Z,95.20
2023-04-02T01:53:13.663Z,95.10
2023-04-02T01:55:46.861Z,95.10
2023-04-02T01:58:19.586Z,95.10
2023-04-02T02:00:54.258Z,95.00
2023-04-02T02:03:23.265Z,94.90
2023-04-02T02:05:52.410Z,95.00
2023-04-02T02:08:34.593Z,95.00
2023-04-02T02:11:04.939Z,95.00
2023-04-02T02:13:33.579Z,94.90
2023-04-02T02:16:12.663Z,94.90
2023-04-02T02:18:41.070Z,94.90
2023-04-02T02:21:10.315Z,94.80
2023-04-02T02:23:38.766Z,94.80
2023-04-02T02:26:08.111Z,94.80
2023-04-02T02:28:42.520Z,94.70
2023-04-02T02:31:19.645Z,94.70
2023-04-02T02:33:52.617Z,94.70
2023-04-02T02:36:28.055Z,94.70
2023-04-02T02:38:58.468Z,94.60
2023-04-02T02:41:35.084Z,94.60
2023-04-02T02:44:07.659Z,94.60
2023-04-02T02:46:41.566Z,94.60
2023-04-02T02:49:16.573Z,94.60
2023-04-02T02:51:49.816Z,94.50
2023-04-02T02:54:19.890Z,94.40
2023-04-02T02:56:51.978Z,94.40
2023-04-02T02:59:22.326Z,94.40
2023-04-02T03:01:53.431Z,94.40
2023-04-02T03:04:22.929Z,94.30
2023-04-02T03:06:53.754Z,94.30
2023-04-02T03:09:35.248Z,94.30
2023-04-02T03:12:13.242Z,94.30
2023-04-02T03:14:48.085Z,94.30
2023-04-02T03:17:21.969Z,94.20
2023-04-02T03:19:59.424Z,94.20
2023-04-02T03:22:35.929Z,94.20
2023-04-02T03:25:21.372Z,94.20
2023-04-02T03:27:53.104Z,94.20
2023-04-02T03:30:31.647Z,94.10
2023-04-02T03:33:06.357Z,94.10
2023-04-02T03:35:41.683Z,94.20
2023-04-02T03:38:17.398Z,94.20
2023-04-02T03:40:58.409Z,94.20
2023-04-02T03:43:28.452Z,94.20
2023-04-02T03:46:02.032Z,94.20
2023-04-02T03:48:40.479Z,94.30
2023-04-02T03:51:16.320Z,94.20
2023-04-02T03:53:45.880Z,94.20
2023-04-02T03:56:28.501Z,94.20
2023-04-02T03:59:08.350Z,94.20
2023-04-02T04:01:44.606Z,94.10
2023-04-02T04:04:19.454Z,94.10
2023-04-02T04:06:53.443Z,94.10
2023-04-02T04:09:28.076Z,94.10
2023-04-02T04:12:10.802Z,94.00
2023-04-02T04:14:45.915Z,93.80
2023-04-02T04:17:23.748Z,93.90
2023-04-02T04:20:00.525Z,93.90
2023-04-02T04:22:31.833Z,93.80
2023-04-02T04:25:02.657Z,93.90
2023-04-02T04:27:42.782Z,93.90
2023-04-02T04:30:23.056Z,93.90
2023-04-02T04:32:58.462Z,93.80
2023-04-02T04:35:33.031Z,93.80
2023-04-02T04:38:07.714Z,93.70
2023-04-02T04:40:39.218Z,93.70
2023-04-02T04:43:15.156Z,93.80
2023-04-02T04:45:51.155Z,93.80
2023-04-02T04:48:23.218Z,93.60
2023-04-02T04:50:58.913Z,93.40
2023-04-02T04:53:31.033Z,93.50
2023-04-02T04:56:12.513Z,93.50
2023-04-02T04:58:51.859Z,93.60
2023-04-02T05:01:25.646Z,93.60
2023-04-02T05:04:02.058Z,93.60
2023-04-02T05:06:40.979Z,93.60
2023-04-02T05:09:19.569Z,93.70
2023-04-02T05:12:03.424Z,93.70
2023-04-02T05:14:37.942Z,93.70
2023-04-02T05:17:10.779Z,93.80
2023-04-02T05:19:46.198Z,93.80
2023-04-02T05:22:27.664Z,93.90
2023-04-02T05:25:11.363Z,93.90
2023-04-02T05:27:46.078Z,93.90
2023-04-02T05:30:40.502Z,94.00
2023-04-02T05:33:23.422Z,94.10
2023-04-02T05:36:04.982Z,94.10
2023-04-02T05:38:38.051Z,93.90
2023-04-02T05:41:16.128Z,94.00
2023-04-02T05:43:49.176Z,94.00
2023-04-02T05:46:19.888Z,93.90
2023-04-02T05:48:52.181Z,93.80
2023-04-02T05:51:25.738Z,93.70
2023-04-02T05:53:58.571Z,93.80
2023-04-02T05:56:31.459Z,93.90
2023-04-02T05:59:07.656Z,93.70
2023-04-02T06:01:43.045Z,93.50
2023-04-02T06:04:22.042Z,93.40
2023-04-02T06:06:59.296Z,93.40
2023-04-02T06:09:39.465Z,93.40
2023-04-02T06:12:25.900Z,93.50
2023-04-02T06:14:54.582Z,93.30
2023-04-02T06:17:23.395Z,93.10
2023-04-02T06:19:54.151Z,93.00
2023-04-02T06:22:28.317Z,93.00
2023-04-02T06:25:04.742Z,93.00
2023-04-02T06:27:35.009Z,92.70
2023-04-02T06:30:11.713Z,92.60
2023-04-02T06:32:39.996Z,92.60
2023-04-02T06:35:12.914Z,92.70
2023-04-02T06:37:44.629Z,92.50
2023-04-02T06:40:35.585Z,92.30
2023-04-02T06:43:10.047Z,92.20
2023-04-02T06:45:43.808Z,92.10
2023-04-02T06:48:19.035Z,92.00
2023-04-02T06:50:50.622Z,92.00
2023-04-02T06:53:24.979Z,91.90
2023-04-02T06:56:01.947Z,92.00
2023-04-02T06:58:30.230Z,92.30
2023-04-02T07:00:58.771Z,92.20
2023-04-02T07:03:29.184Z,92.10
2023-04-02T07:05:58.489Z,92.00
2023-04-02T07:08:27.062Z,91.90
2023-04-02T07:10:57.336Z,91.80
2023-04-02T07:13:26.676Z,91.90
2023-04-02T07:15:56.599Z,91.60
2023-04-02T07:18:28.609Z,91.50
2023-04-02T07:20:57.277Z,91.70
2023-04-02T07:23:26.260Z,91.50
2023-04-02T07:25:57.504Z,91.70
2023-04-02T07:28:26.167Z,91.80
2023-04-02T07:30:55.048Z,91.70
2023-04-02T07:33:26.839Z,91.50
2023-04-02T07:35:57.884Z,91.40
2023-04-02T07:38:26.278Z,91.50
2023-04-02T07:40:55.934Z,91.50
2023-04-02T07:43:24.569Z,91.90
2023-04-02T07:45:52.789Z,91.60
2023-04-02T07:48:21.082Z,91.60
2023-04-02T07:50:49.324Z,91.00
2023-04-02T07:53:30.610Z,91.20
2023-04-02T07:56:02.934Z,91.30
2023-04-02T07:58:32.237Z,90.90
2023-04-02T08:01:01.701Z,91.00
2023-04-02T08:03:30.192Z,90.70
2023-04-02T08:05:59.867Z,90.50
2023-04-02T08:08:28.090Z,90.90
2023-04-02T08:10:56.525Z,91.00
2023-04-02T08:13:26.333Z,91.00
2023-04-02T08:15:54.768Z,90.70
2023-04-02T08:18:24.673Z,91.10
2023-04-02T08:20:53.673Z,91.10
2023-04-02T08:23:22.371Z,90.90
2023-04-02T08:25:51.416Z,91.00
2023-04-02T08:28:19.877Z,90.60
2023-04-02T08:30:50.090Z,90.10
2023-04-02T08:33:19.070Z,90.70
2023-04-02T08:35:47.921Z,90.40
2023-04-02T08:38:21.741Z,90.80
2023-04-02T08:40:52.648Z,90.40
2023-04-02T08:43:42.793Z,90.40
2023-04-02T08:46:20.899Z,90.30
2023-04-02T08:48:56.970Z,90.30
2023-04-02T08:51:28.239Z,90.00
2023-04-02T08:54:01.587Z,89.90
2023-04-02T08:56:37.894Z,90.00
2023-04-02T08:59:18.271Z,89.90
2023-04-02T09:01:54.303Z,90.30
2023-04-02T09:04:25.847Z,90.00
2023-04-02T09:06:57.698Z,89.50
2023-04-02T09:09:26.729Z,89.80
2023-04-02T09:12:00.710Z,89.30
2023-04-02T09:14:44.300Z,89.70
2023-04-02T09:17:20.546Z,88.90
2023-04-02T09:19:57.530Z,88.70
2023-04-02T09:22:27.877Z,89.60
2023-04-02T09:24:58.288Z,89.40
2023-04-02T09:27:29.340Z,88.70
2023-04-02T09:30:03.941Z,89.50
2023-04-02T09:32:47.583Z,89.70
2023-04-02T09:35:26.242Z,89.30
2023-04-02T09:38:22.073Z,90.00
2023-04-02T09:40:55.606Z,90.00
2023-04-02T09:43:26.299Z,88.90
2023-04-02T09:46:01.580Z,89.00
2023-04-02T09:48:34.353Z,88.90
2023-04-02T09:51:15.382Z,89.10
2023-04-02T09:53:47.229Z,89.10
2023-04-02T09:56:19.335Z,88.60
2023-04-02T09:59:05.132Z,89.50
2023-04-02T10:01:35.670Z,89.00
2023-04-02T10:04:08.251Z,88.80
2023-04-02T10:06:36.789Z,88.00
2023-04-02T10:09:30.292Z,88.30
2023-04-02T10:11:59.848Z,88.80
2023-04-02T10:14:32.642Z,88.40
2023-04-02T10:17:08.171Z,88.20
2023-04-02T10:19:41.455Z,88.40
2023-04-02T10:22:15.955Z,88.30
2023-04-02T10:24:44.302Z,88.30
2023-04-02T10:27:25.601Z,88.50
2023-04-02T10:30:11.124Z,88.30
2023-04-02T10:32:45.951Z,88.10
2023-04-02T10:35:39.676Z,88.40
2023-04-02T10:38:44.526Z,87.60
2023-04-02T10:41:32.496Z,88.60
2023-04-02T10:44:24.081Z,87.80
2023-04-02T10:47:05.574Z,86.90
2023-04-02T10:49:43.215Z,87.20
2023-04-02T10:52:21.232Z,87.80
2023-04-02T10:54:52.417Z,88.30
2023-04-02T10:57:31.945Z,87.60
2023-04-02T11:00:17.086Z,88.20
2023-04-02T11:02:53.904Z,88.10
2023-04-02T11:05:32.251Z,88.40
2023-04-02T11:08:13.118Z,88.60
2023-04-02T11:10:48.711Z,88.00
2023-04-02T11:13:24.856Z,87.60
2023-04-02T11:15:53.944Z,87.00
2023-04-02T11:18:32.675Z,87.60
2023-04-02T11:21:07.481Z,87.30
2023-04-02T11:23:55.599Z,86.80
2023-04-02T11:26:41.283Z,87.50
2023-04-02T11:29:27.441Z,86.90
2023-04-02T11:32:31.180Z,86.40
2023-04-02T11:35:27.238Z,87.00
2023-04-02T11:37:57.792Z,86.70
2023-04-02T11:40:52.221Z,86.10
2023-04-02T11:43:50.940Z,86.40
2023-04-02T11:46:45.522Z,85.60
2023-04-02T11:50:04.480Z,85.70
2023-04-02T11:52:37.885Z,86.50
2023-04-02T11:55:24.299Z,87.00
2023-04-02T11:58:26.847Z,86.50
2023-04-02T12:01:43.947Z,85.40
2023-04-02T12:04:41.253Z,85.10
2023-04-02T12:07:46.715Z,85.50
2023-04-02T12:10:19.964Z,85.30
2023-04-02T12:12:49.337Z,85.30
2023-04-02T12:15:46.748Z,85.20
2023-04-02T12:18:18.870Z,84.30
2023-04-02T12:20:53.740Z,85.20
2023-04-02T12:23:24.854Z,83.70
2023-04-02T12:25:59.457Z,84.80
2023-04-02T12:28:29.976Z,85.50
2023-04-02T12:31:13.685Z,83.30
2023-04-02T12:33:42.821Z,83.30
2023-04-02T12:36:21.905Z,85.20
2023-04-02T12:38:52.927Z,83.80
2023-04-02T12:41:27.017Z,84.90
2023-04-02T12:43:59.676Z,83.60
2023-04-02T12:46:31.106Z,84.90
2023-04-02T12:49:06.140Z,84.30
2023-04-02T12:51:35.781Z,85.60
2023-04-02T12:54:05.070Z,83.30
2023-04-02T12:56:33.524Z,84.90
2023-04-02T12:59:02.521Z,83.70
2023-04-02T13:01:33.984Z,83.10
2023-04-02T13:04:07.645Z,83.20
2023-04-02T13:06:37.548Z,82.80
2023-04-02T13:09:08.238Z,82.90
2023-04-02T13:11:38.448Z,82.80
2023-04-02T13:14:09.818Z,82.80
2023-04-02T13:16:40.983Z,82.20
2023-04-02T13:19:27.801Z,82.00
2023-04-02T13:21:58.066Z,82.80
2023-04-02T13:24:28.358Z,82.10
2023-04-02T13:26:58.974Z,82.40
2023-04-02T13:29:31.395Z,83.10
2023-04-02T13:32:03.232Z,83.60
2023-04-02T13:34:32.149Z,81.70
2023-04-02T13:37:00.806Z,82.60
2023-04-02T13:39:30.318Z,81.50
2023-04-02T13:42:00.665Z,80.60
2023-04-02T13:44:31.549Z,81.50
2023-04-02T13:47:01.956Z,80.30
2023-04-02T13:49:30.893Z,79.40
2023-04-02T13:52:03.219Z,80.40
2023-04-02T13:54:37.440Z,79.30
2023-04-02T13:57:06.317Z,80.50
2023-04-02T13:59:34.638Z,79.60
2023-04-02T14:02:10.407Z,80.90
2023-04-02T14:04:45.220Z,80.30
2023-04-02T14:07:37.498Z,79.80
2023-04-02T14:10:24.309Z,79.30
2023-04-02T14:13:15.461Z,79.40
2023-04-02T14:16:04.150Z,80.40
2023-04-02T14:18:52.773Z,80.20
2023-04-02T14:21:35.760Z,80.40
2023-04-02T14:24:19.672Z,79.50
2023-04-02T14:27:04.443Z,77.70
2023-04-02T14:29:39.366Z,79.30
2023-04-02T14:32:11.699Z,79.70
2023-04-02T14:34:50.045Z,78.20
2023-04-02T14:37:26.828Z,77.50
2023-04-02T14:40:07.377Z,78.80
2023-04-02T14:42:42.369Z,78.10
2023-04-02T14:45:18.405Z,77.10
2023-04-02T14:47:53.493Z,77.60
2023-04-02T14:50:29.572Z,76.60
2023-04-02T14:53:05.508Z,77.60
2023-04-02T14:55:39.384Z,77.10
2023-04-02T14:58:16.736Z,76.80
2023-04-02T15:00:54.032Z,76.90
2023-04-02T15:03:25.857Z,76.60
2023-04-02T15:05:59.601Z,75.90
2023-04-02T15:08:30.644Z,76.80
2023-04-02T15:11:08.049Z,77.00
2023-04-02T15:13:42.526Z,76.20
2023-04-02T15:16:16.394Z,75.10
2023-04-02T15:18:44.685Z,73.70
2023-04-02T15:21:40.778Z,75.30
2023-04-02T15:24:21.867Z,75.40
2023-04-02T15:27:03.905Z,73.80
2023-04-02T15:29:46.246Z,74.40
2023-04-02T15:32:28.516Z,73.80
2023-04-02T15:35:03.136Z,74.00
2023-04-02T15:37:37.579Z,74.50
2023-04-02T15:40:36.484Z,75.20
2023-04-02T15:43:17.503Z,75.40
2023-04-02T15:45:59.976Z,75.20
2023-04-02T15:49:07.134Z,75.20
2023-04-02T15:52:01.482Z,72.70
2023-04-02T15:54:53.700Z,73.80
2023-04-02T15:57:43.465Z,72.20
2023-04-02T16:00:23.045Z,73.30
2023-04-02T16:03:32.142Z,73.70
2023-04-02T16:06:17.847Z,73.50
2023-04-02T16:09:01.186Z,74.10
2023-04-02T16:11:31.024Z,71.80
2023-04-02T16:14:12.056Z,71.20
2023-04-02T16:16:41.775Z,72.50
2023-04-02T16:19:17.213Z,73.10
2023-04-02T16:21:53.156Z,72.60
2023-04-02T16:24:22.790Z,73.50
2023-04-02T16:27:01.333Z,72.70
2023-04-02T16:29:59.923Z,71.50
2023-04-02T16:32:48.793Z,70.70
2023-04-02T16:38:16.923Z,72.10
2023-04-02T16:41:07.051Z,72.80
2023-04-02T16:43:42.351Z,72.70
2023-04-02T16:46:28.228Z,73.30
2023-04-02T16:49:20.874Z,71.60
2023-04-02T16:52:02.158Z,71.30
2023-04-02T16:54:37.226Z,72.10
2023-04-02T16:57:31.399Z,71.10
2023-04-02T17:00:14.712Z,71.60
2023-04-02T17:02:56.109Z,72.50
2023-04-02T17:05:33.021Z,72.50
2023-04-02T17:08:18.949Z,72.60
2023-04-02T17:10:52.752Z,71.80
2023-04-02T17:13:29.813Z,72.70
2023-04-02T17:16:10.671Z,71.90
2023-04-02T17:18:40.153Z,72.70
2023-04-02T17:21:14.866Z,72.00
2023-04-02T17:26:24.564Z,72.50
2023-04-02T17:28:54.092Z,73.00
2023-04-02T17:31:26.411Z,73.10
2023-04-02T17:33:54.903Z,73.40
2023-04-02T17:36:38.221Z,72.40
2023-04-02T17:39:22.075Z,73.10
2023-04-02T17:42:00.018Z,73.50
2023-04-02T17:44:48.906Z,74.20
2023-04-02T17:47:23.358Z,74.00
2023-04-02T17:50:18.832Z,74.50
2023-04-02T17:52:53.401Z,74.30
2023-04-02T17:55:31.836Z,74.40
2023-04-02T17:58:09.703Z,73.80
2023-04-02T18:00:52.347Z,74.50
2023-04-02T18:03:47.539Z,74.50
2023-04-02T18:06:21.036Z,74.50
2023-04-02T18:09:08.547Z,75.30
2023-04-02T18:11:48.168Z,74.60
2023-04-02T18:14:39.709Z,74.30
2023-04-02T18:17:17.017Z,73.30
2023-04-02T18:19:55.561Z,74.50
2023-04-02T18:22:33.019Z,73.60
2023-04-02T18:25:36.621Z,73.70
2023-04-02T18:28:36.620Z,74.30
2023-04-02T18:31:14.703Z,74.60
2023-04-02T18:34:33.733Z,74.30
2023-04-02T18:37:21.244Z,74.70
2023-04-02T18:40:04.932Z,74.80
2023-04-02T18:42:49.114Z,73.60
2023-04-02T18:45:23.806Z,73.90
2023-04-02T18:48:03.766Z,74.80
2023-04-02T18:50:35.312Z,74.80
2023-04-02T18:53:13.745Z,74.70
2023-04-02T18:55:48.961Z,74.70
2023-04-02T18:58:25.790Z,74.80
2023-04-02T19:00:54.732Z,75.90
2023-04-02T19:03:29.110Z,76.00
2023-04-02T19:06:02.962Z,75.90
2023-04-02T19:08:40.529Z,76.00
2023-04-02T19:11:15.557Z,76.20
2023-04-02T19:13:45.096Z,76.10
2023-04-02T19:16:48.371Z,76.70
2023-04-02T19:19:21.285Z,76.90
2023-04-02T19:22:18.015Z,77.00
2023-04-02T19:25:21.755Z,78.00
2023-04-02T19:28:07.949Z,78.10
2023-04-02T19:30:57.701Z,78.70
2023-04-02T19:33:46.921Z,78.40
2023-04-02T19:36:41.488Z,78.70
2023-04-02T19:39:39.648Z,78.90
2023-04-02T19:42:20.125Z,79.30
2023-04-02T19:44:51.822Z,79.50
2023-04-02T19:47:21.357Z,79.70
2023-04-02T19:49:49.880Z,79.90
2023-04-02T19:52:19.480Z,79.90
2023-04-02T19:54:47.937Z,80.00
2023-04-02T19:57:17.972Z,79.20
2023-04-02T19:59:46.254Z,79.70
2023-04-02T20:02:14.557Z,80.20
2023-04-02T20:04:42.870Z,80.30
2023-04-02T20:07:11.206Z,80.20
2023-04-02T20:09:39.560Z,80.50
2023-04-02T20:12:08.145Z,80.40
2023-04-02T20:14:37.786Z,80.70
2023-04-02T20:17:06.385Z,81.10
2023-04-02T20:19:34.907Z,81.30
2023-04-02T20:22:03.234Z,81.40
2023-04-02T20:24:31.535Z,81.80
2023-04-02T20:26:59.870Z,81.70
2023-04-02T20:29:30.377Z,81.90
2023-04-02T20:32:00.377Z,82.20
2023-04-02T20:34:28.817Z,82.20
2023-04-02T20:36:57.410Z,82.20
2023-04-02T20:39:25.768Z,82.50
2023-04-02T20:41:54.337Z,82.50
2023-04-02T20:44:22.843Z,82.70
2023-04-02T20:46:51.232Z,82.70
2023-04-02T20:49:21.236Z,82.70
2023-04-02T20:51:49.640Z,82.80
2023-04-02T20:54:18.029Z,83.10
2023-04-02T20:56:46.337Z,83.30
2023-04-02T20:59:14.668Z,83.30
2023-04-02T21:01:43.298Z,83.40
2023-04-02T21:04:11.794Z,83.30
2023-04-02T21:06:42.109Z,83.40
2023-04-02T21:09:16.319Z,83.50
2023-04-02T21:11:46.470Z,83.30
2023-04-02T21:14:14.868Z,83.40
2023-04-02T21:16:43.249Z,83.60
2023-04-02T21:19:12.338Z,83.90
2023-04-02T21:21:44.160Z,83.60
2023-04-02T21:24:12.841Z,83.50
2023-04-02T21:26:42.568Z,83.70
2023-04-02T21:29:13.131Z,84.00
2023-04-02T21:31:42.446Z,84.20
2023-04-02T21:34:15.021Z,84.10
2023-04-02T21:36:46.752Z,84.30
2023-04-02T21:39:21.172Z,84.30
2023-04-02T21:41:51.895Z,84.50
2023-04-02T21:44:22.372Z,84.60
2023-04-02T21:46:53.012Z,84.70
2023-04-02T21:49:23.215Z,84.90
2023-04-02T21:51:53.216Z,85.00
2023-04-02T21:54:21.584Z,85.20
2023-04-02T21:56:50.661Z,85.20
2023-04-02T21:59:19.655Z,85.20
2023-04-02T22:01:50.369Z,85.20
2023-04-02T22:04:20.867Z,85.20
2023-04-02T22:06:50.655Z,85.30
2023-04-02T22:09:23.452Z,85.20
2023-04-02T22:11:55.563Z,85.10
2023-04-02T22:14:25.472Z,85.40
2023-04-02T22:16:53.845Z,85.40
2023-04-02T22:19:22.577Z,85.30
2023-04-02T22:21:50.931Z,85.60
2023-04-02T22:24:22.100Z,85.60
2023-04-02T22:26:50.444Z,85.50
2023-04-02T22:29:18.744Z,85.60
2023-04-02T22:31:48.096Z,85.50
2023-04-02T22:34:16.492Z,85.60
2023-04-02T22:36:44.827Z,85.80
2023-04-02T22:39:13.460Z,85.70
2023-04-02T22:41:43.336Z,85.60
2023-04-02T22:44:16.293Z,85.50
2023-04-02T22:46:44.812Z,85.30
2023-04-02T22:49:19.114Z,85.50
2023-04-02T22:51:47.864Z,85.80
2023-04-02T22:54:16.420Z,86.00
2023-04-02T22:56:46.062Z,86.10
2023-04-02T22:59:14.850Z,86.20
2023-04-02T23:01:43.502Z,86.30
2023-04-02T23:04:12.149Z,86.40
2023-04-02T23:06:40.718Z,86.70
2023-04-02T23:09:09.439Z,86.70
2023-04-02T23:11:37.900Z,86.40
2023-04-02T23:14:07.529Z,86.60
2023-04-02T23:16:35.926Z,86.80
2023-04-02T23:19:04.962Z,86.80
2023-04-02T23:21:33.306Z,86.60
2023-04-02T23:24:01.842Z,86.70
2023-04-02T23:26:31.849Z,86.80
2023-04-02T23:29:01.959Z,86.80
2023-04-02T23:31:31.854Z,86.80
2023-04-02T23:34:00.495Z,86.90
2023-04-02T23:36:31.984Z,87.00
2023-04-02T23:39:04.037Z,86.90
2023-04-02T23:41:33.469Z,87.00
2023-04-02T23:44:01.971Z,87.00
2023-04-02T23:46:32.267Z,86.90
2023-04-02T23:49:02.253Z,86.70
2023-04-02T23:51:32.432Z,86.70
2023-04-02T23:54:01.137Z,86.60
2023-04-02T23:56:29.533Z,86.70
2023-04-02T23:58:57.775Z,86.80
